Terminal Aerodrome Forecast
Issued by NWS Sterling, VA

Current Version | Previous Version | Graphics & Text | Print | Product List | Glossary On
Versions: 1 2 3 4 5 6 7 8 9 10 11 12 13 14 15
000
FTUS41 KLWX 190500
TAFMRB
TAF
KMRB 190535Z 1906/2006 36004KT P6SM SCT050
     FM190800 01004KT 5SM BR SCT050
     FM191200 02004KT P6SM SCT050
     FM191700 11005KT P6SM SCT050
     FM192200 13007KT P6SM BKN050=

USA.gov is the U.S. government's official web portal to all federal, state and local government web resources and services.